sensor_id;sensor_type;location;lat;lon;timestamp;P1;durP1;ratioP1;P2;durP2;ratioP2
63087;SDS011;49173;43.164;27.786;2023-08-30T00:00:54;8.70;;;6.30;;
63087;SDS011;49173;43.164;27.786;2023-08-30T00:03:21;9.15;;;6.70;;
63087;SDS011;49173;43.164;27.786;2023-08-30T00:05:46;8.63;;;6.55;;
63087;SDS011;49173;43.164;27.786;2023-08-30T00:08:12;8.85;;;6.53;;
63087;SDS011;49173;43.164;27.786;2023-08-30T00:10:38;9.60;;;7.00;;
63087;SDS011;49173;43.164;27.786;2023-08-30T00:13:05;11.48;;;6.85;;
63087;SDS011;49173;43.164;27.786;2023-08-30T00:15:30;8.18;;;6.65;;
63087;SDS011;49173;43.164;27.786;2023-08-30T00:17:56;15.38;;;7.55;;
63087;SDS011;49173;43.164;27.786;2023-08-30T00:20:22;11.65;;;7.68;;
63087;SDS011;49173;43.164;27.786;2023-08-30T00:22:48;10.60;;;6.90;;
63087;SDS011;49173;43.164;27.786;2023-08-30T00:25:14;8.82;;;6.70;;
63087;SDS011;49173;43.164;27.786;2023-08-30T00:27:41;13.18;;;7.32;;
63087;SDS011;49173;43.164;27.786;2023-08-30T00:30:07;9.25;;;7.22;;
63087;SDS011;49173;43.164;27.786;2023-08-30T00:32:34;14.07;;;7.28;;
63087;SDS011;49173;43.164;27.786;2023-08-30T00:35:00;11.43;;;7.80;;
63087;SDS011;49173;43.164;27.786;2023-08-30T00:37:26;12.35;;;7.97;;
63087;SDS011;49173;43.164;27.786;2023-08-30T00:39:52;18.70;;;8.23;;
63087;SDS011;49173;43.164;27.786;2023-08-30T00:42:18;13.25;;;7.85;;
63087;SDS011;49173;43.164;27.786;2023-08-30T00:44:43;11.93;;;7.45;;
63087;SDS011;49173;43.164;27.786;2023-08-30T00:47:09;11.82;;;8.00;;
63087;SDS011;49173;43.164;27.786;2023-08-30T00:49:36;10.43;;;7.70;;
63087;SDS011;49173;43.164;27.786;2023-08-30T00:52:03;12.05;;;8.27;;
63087;SDS011;49173;43.164;27.786;2023-08-30T00:54:34;16.02;;;8.70;;
63087;SDS011;49173;43.164;27.786;2023-08-30T00:57:00;11.10;;;8.05;;
63087;SDS011;49173;43.164;27.786;2023-08-30T00:59:27;12.35;;;8.00;;
63087;SDS011;49173;43.164;27.786;2023-08-30T01:01:57;10.52;;;7.82;;
63087;SDS011;49173;43.164;27.786;2023-08-30T01:04:23;14.95;;;8.20;;
63087;SDS011;49173;43.164;27.786;2023-08-30T01:06:50;12.15;;;7.10;;
63087;SDS011;49173;43.164;27.786;2023-08-30T01:09:16;9.27;;;7.28;;
63087;SDS011;49173;43.164;27.786;2023-08-30T01:14:34;11.00;;;7.85;;
63087;SDS011;49173;43.164;27.786;2023-08-30T01:17:10;13.02;;;7.75;;
63087;SDS011;49173;43.164;27.786;2023-08-30T01:24:58;13.77;;;7.55;;
63087;SDS011;49173;43.164;27.786;2023-08-30T01:27:34;10.52;;;7.10;;
63087;SDS011;49173;43.164;27.786;2023-08-30T01:30:03;9.90;;;7.90;;
63087;SDS011;49173;43.164;27.786;2023-08-30T01:32:33;9.18;;;7.60;;
63087;SDS011;49173;43.164;27.786;2023-08-30T01:35:01;13.55;;;7.97;;
63087;SDS011;49173;43.164;27.786;2023-08-30T01:37:27;8.40;;;7.50;;
63087;SDS011;49173;43.164;27.786;2023-08-30T01:39:54;8.52;;;7.63;;
63087;SDS011;49173;43.164;27.786;2023-08-30T01:42:24;10.85;;;7.28;;
63087;SDS011;49173;43.164;27.786;2023-08-30T01:44:52;9.48;;;7.30;;
63087;SDS011;49173;43.164;27.786;2023-08-30T01:47:25;8.60;;;6.97;;
63087;SDS011;49173;43.164;27.786;2023-08-30T01:49:53;12.80;;;8.27;;
63087;SDS011;49173;43.164;27.786;2023-08-30T01:52:21;11.20;;;8.40;;
63087;SDS011;49173;43.164;27.786;2023-08-30T01:54:48;12.45;;;7.68;;
63087;SDS011;49173;43.164;27.786;2023-08-30T01:57:17;10.77;;;7.93;;
63087;SDS011;49173;43.164;27.786;2023-08-30T01:59:43;12.80;;;7.90;;
63087;SDS011;49173;43.164;27.786;2023-08-30T02:02:09;9.45;;;7.97;;
63087;SDS011;49173;43.164;27.786;2023-08-30T02:04:35;11.32;;;8.40;;
63087;SDS011;49173;43.164;27.786;2023-08-30T02:07:02;12.15;;;8.13;;
63087;SDS011;49173;43.164;27.786;2023-08-30T02:09:33;11.30;;;8.38;;
63087;SDS011;49173;43.164;27.786;2023-08-30T02:12:19;9.68;;;8.07;;
63087;SDS011;49173;43.164;27.786;2023-08-30T02:14:48;13.77;;;7.88;;
63087;SDS011;49173;43.164;27.786;2023-08-30T02:17:14;10.82;;;8.02;;
63087;SDS011;49173;43.164;27.786;2023-08-30T02:19:44;9.85;;;7.70;;
63087;SDS011;49173;43.164;27.786;2023-08-30T02:22:11;10.65;;;7.85;;
63087;SDS011;49173;43.164;27.786;2023-08-30T02:24:37;12.07;;;7.90;;
63087;SDS011;49173;43.164;27.786;2023-08-30T02:27:03;10.60;;;7.93;;
63087;SDS011;49173;43.164;27.786;2023-08-30T02:29:29;10.23;;;7.50;;
63087;SDS011;49173;43.164;27.786;2023-08-30T02:31:55;9.60;;;7.75;;
63087;SDS011;49173;43.164;27.786;2023-08-30T02:34:21;11.85;;;8.02;;
63087;SDS011;49173;43.164;27.786;2023-08-30T02:36:46;10.10;;;8.43;;
63087;SDS011;49173;43.164;27.786;2023-08-30T02:39:15;10.50;;;7.90;;
63087;SDS011;49173;43.164;27.786;2023-08-30T02:41:41;10.38;;;8.45;;
63087;SDS011;49173;43.164;27.786;2023-08-30T02:44:13;11.50;;;9.07;;
63087;SDS011;49173;43.164;27.786;2023-08-30T02:46:39;11.68;;;8.25;;
63087;SDS011;49173;43.164;27.786;2023-08-30T02:49:05;12.07;;;8.60;;
63087;SDS011;49173;43.164;27.786;2023-08-30T02:51:31;10.50;;;8.82;;
63087;SDS011;49173;43.164;27.786;2023-08-30T02:53:57;12.02;;;8.35;;
63087;SDS011;49173;43.164;27.786;2023-08-30T02:56:23;14.63;;;8.73;;
63087;SDS011;49173;43.164;27.786;2023-08-30T02:58:50;18.55;;;8.23;;
63087;SDS011;49173;43.164;27.786;2023-08-30T03:01:16;11.75;;;8.35;;
63087;SDS011;49173;43.164;27.786;2023-08-30T03:03:42;13.77;;;8.05;;
63087;SDS011;49173;43.164;27.786;2023-08-30T03:06:07;9.60;;;8.10;;
63087;SDS011;49173;43.164;27.786;2023-08-30T03:08:34;15.20;;;8.43;;
63087;SDS011;49173;43.164;27.786;2023-08-30T03:11:34;11.20;;;8.63;;
63087;SDS011;49173;43.164;27.786;2023-08-30T03:13:53;11.77;;;7.90;;
63087;SDS011;49173;43.164;27.786;2023-08-30T03:16:20;12.70;;;7.72;;
63087;SDS011;49173;43.164;27.786;2023-08-30T03:18:46;10.30;;;7.70;;
63087;SDS011;49173;43.164;27.786;2023-08-30T03:21:12;11.57;;;7.93;;
63087;SDS011;49173;43.164;27.786;2023-08-30T03:23:39;10.77;;;8.55;;
63087;SDS011;49173;43.164;27.786;2023-08-30T03:26:10;10.43;;;8.60;;
63087;SDS011;49173;43.164;27.786;2023-08-30T03:28:38;11.80;;;8.88;;
63087;SDS011;49173;43.164;27.786;2023-08-30T03:31:14;11.15;;;8.63;;
63087;SDS011;49173;43.164;27.786;2023-08-30T03:33:41;10.43;;;8.40;;
63087;SDS011;49173;43.164;27.786;2023-08-30T03:36:09;9.48;;;7.90;;
63087;SDS011;49173;43.164;27.786;2023-08-30T03:38:36;10.35;;;7.90;;
63087;SDS011;49173;43.164;27.786;2023-08-30T03:41:03;11.68;;;8.48;;
63087;SDS011;49173;43.164;27.786;2023-08-30T03:43:32;10.55;;;8.23;;
63087;SDS011;49173;43.164;27.786;2023-08-30T03:45:59;10.65;;;9.02;;
63087;SDS011;49173;43.164;27.786;2023-08-30T03:48:29;13.20;;;8.27;;
63087;SDS011;49173;43.164;27.786;2023-08-30T03:50:55;11.23;;;8.35;;
63087;SDS011;49173;43.164;27.786;2023-08-30T03:53:22;11.80;;;8.00;;
63087;SDS011;49173;43.164;27.786;2023-08-30T03:55:48;10.25;;;7.85;;
63087;SDS011;49173;43.164;27.786;2023-08-30T03:58:15;12.90;;;8.57;;
63087;SDS011;49173;43.164;27.786;2023-08-30T04:00:41;12.98;;;7.60;;
63087;SDS011;49173;43.164;27.786;2023-08-30T04:03:08;11.63;;;7.93;;
63087;SDS011;49173;43.164;27.786;2023-08-30T04:05:35;14.10;;;8.00;;
63087;SDS011;49173;43.164;27.786;2023-08-30T04:08:03;13.40;;;8.18;;
63087;SDS011;49173;43.164;27.786;2023-08-30T04:10:33;12.07;;;7.93;;
63087;SDS011;49173;43.164;27.786;2023-08-30T04:13:03;12.80;;;8.55;;
63087;SDS011;49173;43.164;27.786;2023-08-30T04:15:37;13.13;;;8.18;;
63087;SDS011;49173;43.164;27.786;2023-08-30T04:18:03;17.88;;;8.90;;
63087;SDS011;49173;43.164;27.786;2023-08-30T04:20:30;17.02;;;9.23;;
63087;SDS011;49173;43.164;27.786;2023-08-30T04:22:57;15.48;;;8.65;;
63087;SDS011;49173;43.164;27.786;2023-08-30T04:27:54;12.83;;;7.97;;
63087;SDS011;49173;43.164;27.786;2023-08-30T04:30:20;11.77;;;7.90;;
63087;SDS011;49173;43.164;27.786;2023-08-30T04:32:46;9.10;;;7.93;;
63087;SDS011;49173;43.164;27.786;2023-08-30T04:35:12;11.73;;;7.80;;
63087;SDS011;49173;43.164;27.786;2023-08-30T04:37:38;12.38;;;7.57;;
63087;SDS011;49173;43.164;27.786;2023-08-30T04:40:07;16.02;;;8.55;;
63087;SDS011;49173;43.164;27.786;2023-08-30T04:42:34;19.52;;;7.47;;
63087;SDS011;49173;43.164;27.786;2023-08-30T04:45:01;14.18;;;7.22;;
63087;SDS011;49173;43.164;27.786;2023-08-30T04:47:28;10.30;;;7.10;;
63087;SDS011;49173;43.164;27.786;2023-08-30T04:49:55;16.88;;;8.30;;
63087;SDS011;49173;43.164;27.786;2023-08-30T04:52:21;16.23;;;7.80;;
63087;SDS011;49173;43.164;27.786;2023-08-30T04:54:47;11.15;;;7.30;;
63087;SDS011;49173;43.164;27.786;2023-08-30T04:57:14;10.38;;;8.27;;
63087;SDS011;49173;43.164;27.786;2023-08-30T04:59:44;10.98;;;7.90;;
63087;SDS011;49173;43.164;27.786;2023-08-30T05:02:11;9.85;;;7.85;;
63087;SDS011;49173;43.164;27.786;2023-08-30T05:04:37;14.18;;;7.40;;
63087;SDS011;49173;43.164;27.786;2023-08-30T05:07:03;14.27;;;7.80;;
63087;SDS011;49173;43.164;27.786;2023-08-30T05:09:30;10.93;;;8.23;;
63087;SDS011;49173;43.164;27.786;2023-08-30T05:11:56;11.10;;;7.90;;
63087;SDS011;49173;43.164;27.786;2023-08-30T05:14:22;12.07;;;8.27;;
63087;SDS011;49173;43.164;27.786;2023-08-30T05:16:48;10.70;;;7.53;;
63087;SDS011;49173;43.164;27.786;2023-08-30T05:19:15;10.52;;;8.18;;
63087;SDS011;49173;43.164;27.786;2023-08-30T05:21:42;12.98;;;7.25;;
63087;SDS011;49173;43.164;27.786;2023-08-30T05:24:08;16.05;;;7.60;;
63087;SDS011;49173;43.164;27.786;2023-08-30T05:26:35;14.82;;;7.13;;
63087;SDS011;49173;43.164;27.786;2023-08-30T05:29:01;11.77;;;7.80;;
63087;SDS011;49173;43.164;27.786;2023-08-30T05:31:27;11.60;;;8.27;;
63087;SDS011;49173;43.164;27.786;2023-08-30T05:33:53;19.67;;;8.10;;
63087;SDS011;49173;43.164;27.786;2023-08-30T05:36:19;13.35;;;8.32;;
63087;SDS011;49173;43.164;27.786;2023-08-30T05:38:45;13.40;;;7.55;;
63087;SDS011;49173;43.164;27.786;2023-08-30T05:41:11;17.25;;;8.00;;
63087;SDS011;49173;43.164;27.786;2023-08-30T05:43:37;9.57;;;7.50;;
63087;SDS011;49173;43.164;27.786;2023-08-30T05:46:03;11.52;;;7.97;;
63087;SDS011;49173;43.164;27.786;2023-08-30T05:48:29;12.70;;;7.05;;
63087;SDS011;49173;43.164;27.786;2023-08-30T05:50:55;11.77;;;7.22;;
63087;SDS011;49173;43.164;27.786;2023-08-30T05:53:22;14.23;;;8.15;;
63087;SDS011;49173;43.164;27.786;2023-08-30T05:55:48;10.55;;;7.03;;
63087;SDS011;49173;43.164;27.786;2023-08-30T05:58:14;15.88;;;7.07;;
63087;SDS011;49173;43.164;27.786;2023-08-30T06:00:40;9.52;;;7.03;;
63087;SDS011;49173;43.164;27.786;2023-08-30T06:03:06;15.32;;;7.28;;
63087;SDS011;49173;43.164;27.786;2023-08-30T06:05:33;10.27;;;6.20;;
63087;SDS011;49173;43.164;27.786;2023-08-30T06:07:59;12.98;;;6.63;;
63087;SDS011;49173;43.164;27.786;2023-08-30T06:10:27;10.57;;;6.55;;
63087;SDS011;49173;43.164;27.786;2023-08-30T06:12:53;11.18;;;6.05;;
63087;SDS011;49173;43.164;27.786;2023-08-30T06:15:19;11.93;;;5.97;;
63087;SDS011;49173;43.164;27.786;2023-08-30T06:17:45;13.80;;;5.97;;
63087;SDS011;49173;43.164;27.786;2023-08-30T06:20:11;8.98;;;5.65;;
63087;SDS011;49173;43.164;27.786;2023-08-30T06:22:40;7.70;;;5.60;;
63087;SDS011;49173;43.164;27.786;2023-08-30T06:25:08;8.63;;;5.43;;
63087;SDS011;49173;43.164;27.786;2023-08-30T06:27:40;11.13;;;6.22;;
63087;SDS011;49173;43.164;27.786;2023-08-30T06:30:08;11.23;;;5.80;;
63087;SDS011;49173;43.164;27.786;2023-08-30T06:32:34;10.50;;;6.20;;
63087;SDS011;49173;43.164;27.786;2023-08-30T06:35:00;13.13;;;6.18;;
63087;SDS011;49173;43.164;27.786;2023-08-30T06:37:27;19.80;;;6.32;;
63087;SDS011;49173;43.164;27.786;2023-08-30T06:39:52;11.98;;;6.00;;
63087;SDS011;49173;43.164;27.786;2023-08-30T06:42:18;12.63;;;5.82;;
63087;SDS011;49173;43.164;27.786;2023-08-30T06:44:44;12.23;;;6.75;;
63087;SDS011;49173;43.164;27.786;2023-08-30T06:47:10;12.82;;;6.72;;
63087;SDS011;49173;43.164;27.786;2023-08-30T06:49:35;10.45;;;6.32;;
63087;SDS011;49173;43.164;27.786;2023-08-30T06:52:01;9.48;;;5.63;;
63087;SDS011;49173;43.164;27.786;2023-08-30T06:54:29;15.50;;;5.82;;
63087;SDS011;49173;43.164;27.786;2023-08-30T06:56:59;10.48;;;5.90;;
63087;SDS011;49173;43.164;27.786;2023-08-30T06:59:25;10.07;;;6.00;;
63087;SDS011;49173;43.164;27.786;2023-08-30T07:01:55;11.20;;;6.18;;
63087;SDS011;49173;43.164;27.786;2023-08-30T07:04:21;11.60;;;6.03;;
63087;SDS011;49173;43.164;27.786;2023-08-30T07:06:47;12.55;;;5.43;;
63087;SDS011;49173;43.164;27.786;2023-08-30T07:09:13;12.40;;;5.95;;
63087;SDS011;49173;43.164;27.786;2023-08-30T07:11:41;14.82;;;6.07;;
63087;SDS011;49173;43.164;27.786;2023-08-30T07:14:09;13.88;;;6.00;;
63087;SDS011;49173;43.164;27.786;2023-08-30T07:16:36;10.13;;;5.85;;
63087;SDS011;49173;43.164;27.786;2023-08-30T07:19:02;10.95;;;6.60;;
63087;SDS011;49173;43.164;27.786;2023-08-30T07:21:27;13.02;;;6.72;;
63087;SDS011;49173;43.164;27.786;2023-08-30T07:23:53;17.92;;;7.38;;
63087;SDS011;49173;43.164;27.786;2023-08-30T07:26:20;12.65;;;6.50;;
63087;SDS011;49173;43.164;27.786;2023-08-30T07:28:45;10.93;;;6.05;;
63087;SDS011;49173;43.164;27.786;2023-08-30T07:31:11;13.43;;;6.05;;
63087;SDS011;49173;43.164;27.786;2023-08-30T07:33:40;11.90;;;6.20;;
63087;SDS011;49173;43.164;27.786;2023-08-30T07:36:07;9.77;;;6.30;;
63087;SDS011;49173;43.164;27.786;2023-08-30T07:38:33;10.82;;;6.47;;
63087;SDS011;49173;43.164;27.786;2023-08-30T07:41:00;18.15;;;6.60;;
63087;SDS011;49173;43.164;27.786;2023-08-30T07:43:30;10.80;;;6.18;;
63087;SDS011;49173;43.164;27.786;2023-08-30T07:45:56;14.07;;;5.95;;
63087;SDS011;49173;43.164;27.786;2023-08-30T07:48:40;13.23;;;6.03;;
63087;SDS011;49173;43.164;27.786;2023-08-30T07:51:09;12.50;;;6.10;;
63087;SDS011;49173;43.164;27.786;2023-08-30T07:53:35;11.35;;;5.90;;
63087;SDS011;49173;43.164;27.786;2023-08-30T07:56:01;12.88;;;6.00;;
63087;SDS011;49173;43.164;27.786;2023-08-30T07:58:27;13.38;;;5.72;;
63087;SDS011;49173;43.164;27.786;2023-08-30T08:00:53;8.55;;;5.95;;
63087;SDS011;49173;43.164;27.786;2023-08-30T08:03:22;13.02;;;6.15;;
63087;SDS011;49173;43.164;27.786;2023-08-30T08:05:47;11.52;;;5.38;;
63087;SDS011;49173;43.164;27.786;2023-08-30T08:08:13;9.20;;;5.40;;
63087;SDS011;49173;43.164;27.786;2023-08-30T08:10:40;12.82;;;5.57;;
63087;SDS011;49173;43.164;27.786;2023-08-30T08:13:08;11.60;;;5.63;;
63087;SDS011;49173;43.164;27.786;2023-08-30T08:15:34;12.77;;;5.20;;
63087;SDS011;49173;43.164;27.786;2023-08-30T08:18:03;13.45;;;5.72;;
63087;SDS011;49173;43.164;27.786;2023-08-30T08:20:29;12.25;;;5.57;;
63087;SDS011;49173;43.164;27.786;2023-08-30T08:22:56;8.57;;;5.63;;
63087;SDS011;49173;43.164;27.786;2023-08-30T08:25:34;7.88;;;5.22;;
63087;SDS011;49173;43.164;27.786;2023-08-30T08:28:03;9.20;;;5.22;;
63087;SDS011;49173;43.164;27.786;2023-08-30T08:30:32;7.25;;;4.85;;
63087;SDS011;49173;43.164;27.786;2023-08-30T08:33:06;11.50;;;5.20;;
63087;SDS011;49173;43.164;27.786;2023-08-30T08:35:32;12.77;;;5.07;;
63087;SDS011;49173;43.164;27.786;2023-08-30T08:37:58;12.88;;;5.65;;
63087;SDS011;49173;43.164;27.786;2023-08-30T08:40:25;14.63;;;5.65;;
63087;SDS011;49173;43.164;27.786;2023-08-30T08:42:51;14.05;;;5.38;;
63087;SDS011;49173;43.164;27.786;2023-08-30T08:45:21;10.60;;;5.15;;
63087;SDS011;49173;43.164;27.786;2023-08-30T08:47:54;12.68;;;5.25;;
63087;SDS011;49173;43.164;27.786;2023-08-30T08:50:32;10.20;;;5.60;;
63087;SDS011;49173;43.164;27.786;2023-08-30T08:53:10;9.00;;;5.53;;
63087;SDS011;49173;43.164;27.786;2023-08-30T08:55:37;8.88;;;5.60;;
63087;SDS011;49173;43.164;27.786;2023-08-30T08:58:15;8.93;;;5.60;;
63087;SDS011;49173;43.164;27.786;2023-08-30T09:00:45;10.95;;;5.57;;
63087;SDS011;49173;43.164;27.786;2023-08-30T09:03:11;13.63;;;5.63;;
63087;SDS011;49173;43.164;27.786;2023-08-30T09:05:38;11.77;;;5.70;;
63087;SDS011;49173;43.164;27.786;2023-08-30T09:08:05;12.93;;;5.35;;
63087;SDS011;49173;43.164;27.786;2023-08-30T09:10:32;9.70;;;5.03;;
63087;SDS011;49173;43.164;27.786;2023-08-30T09:12:58;12.45;;;5.32;;
63087;SDS011;49173;43.164;27.786;2023-08-30T09:15:31;10.45;;;5.28;;
63087;SDS011;49173;43.164;27.786;2023-08-30T09:17:58;9.48;;;5.70;;
63087;SDS011;49173;43.164;27.786;2023-08-30T09:20:26;11.53;;;5.70;;
63087;SDS011;49173;43.164;27.786;2023-08-30T09:22:52;8.73;;;5.10;;
63087;SDS011;49173;43.164;27.786;2023-08-30T09:25:27;10.57;;;5.30;;
63087;SDS011;49173;43.164;27.786;2023-08-30T09:27:57;12.25;;;5.68;;
63087;SDS011;49173;43.164;27.786;2023-08-30T09:30:24;14.38;;;6.30;;
63087;SDS011;49173;43.164;27.786;2023-08-30T09:32:53;14.75;;;5.75;;
63087;SDS011;49173;43.164;27.786;2023-08-30T09:35:18;11.00;;;5.57;;
63087;SDS011;49173;43.164;27.786;2023-08-30T09:37:44;14.48;;;5.63;;
63087;SDS011;49173;43.164;27.786;2023-08-30T09:40:11;12.65;;;6.07;;
63087;SDS011;49173;43.164;27.786;2023-08-30T09:42:40;11.45;;;5.53;;
63087;SDS011;49173;43.164;27.786;2023-08-30T09:45:19;10.15;;;5.05;;
63087;SDS011;49173;43.164;27.786;2023-08-30T09:47:50;9.23;;;5.22;;
63087;SDS011;49173;43.164;27.786;2023-08-30T09:50:19;10.70;;;5.40;;
63087;SDS011;49173;43.164;27.786;2023-08-30T09:52:49;11.10;;;5.43;;
63087;SDS011;49173;43.164;27.786;2023-08-30T09:55:18;12.63;;;4.93;;
63087;SDS011;49173;43.164;27.786;2023-08-30T09:57:44;7.85;;;4.65;;
63087;SDS011;49173;43.164;27.786;2023-08-30T10:00:11;11.02;;;5.20;;
63087;SDS011;49173;43.164;27.786;2023-08-30T10:02:41;11.68;;;5.22;;
63087;SDS011;49173;43.164;27.786;2023-08-30T10:05:09;8.45;;;5.13;;
63087;SDS011;49173;43.164;27.786;2023-08-30T10:07:36;8.45;;;4.78;;
63087;SDS011;49173;43.164;27.786;2023-08-30T10:10:03;14.05;;;5.05;;
63087;SDS011;49173;43.164;27.786;2023-08-30T10:12:33;13.20;;;4.90;;
63087;SDS011;49173;43.164;27.786;2023-08-30T10:14:59;8.68;;;5.25;;
63087;SDS011;49173;43.164;27.786;2023-08-30T10:17:27;13.25;;;6.05;;
63087;SDS011;49173;43.164;27.786;2023-08-30T10:19:56;8.32;;;5.22;;
63087;SDS011;49173;43.164;27.786;2023-08-30T10:22:24;12.23;;;5.05;;
63087;SDS011;49173;43.164;27.786;2023-08-30T10:24:52;13.82;;;5.10;;
63087;SDS011;49173;43.164;27.786;2023-08-30T10:27:24;10.27;;;5.47;;
63087;SDS011;49173;43.164;27.786;2023-08-30T10:29:55;12.43;;;5.45;;
63087;SDS011;49173;43.164;27.786;2023-08-30T10:32:21;12.70;;;4.90;;
63087;SDS011;49173;43.164;27.786;2023-08-30T10:34:48;11.20;;;4.68;;
63087;SDS011;49173;43.164;27.786;2023-08-30T10:37:15;8.40;;;4.72;;
63087;SDS011;49173;43.164;27.786;2023-08-30T10:39:42;9.05;;;4.55;;
63087;SDS011;49173;43.164;27.786;2023-08-30T10:42:12;8.82;;;5.20;;
63087;SDS011;49173;43.164;27.786;2023-08-30T10:44:48;13.60;;;5.38;;
63087;SDS011;49173;43.164;27.786;2023-08-30T10:47:31;9.95;;;4.65;;
63087;SDS011;49173;43.164;27.786;2023-08-30T10:50:04;6.35;;;4.75;;
63087;SDS011;49173;43.164;27.786;2023-08-30T10:52:31;10.43;;;4.97;;
63087;SDS011;49173;43.164;27.786;2023-08-30T10:57:42;11.07;;;4.80;;
63087;SDS011;49173;43.164;27.786;2023-08-30T11:02:45;10.55;;;4.72;;
63087;SDS011;49173;43.164;27.786;2023-08-30T11:05:17;9.45;;;5.20;;
63087;SDS011;49173;43.164;27.786;2023-08-30T11:07:44;9.23;;;5.03;;
63087;SDS011;49173;43.164;27.786;2023-08-30T11:10:11;8.45;;;4.82;;
63087;SDS011;49173;43.164;27.786;2023-08-30T11:12:37;10.48;;;4.50;;
63087;SDS011;49173;43.164;27.786;2023-08-30T11:15:06;9.23;;;5.03;;
63087;SDS011;49173;43.164;27.786;2023-08-30T11:17:33;16.02;;;4.60;;
63087;SDS011;49173;43.164;27.786;2023-08-30T11:20:20;8.15;;;3.92;;
63087;SDS011;49173;43.164;27.786;2023-08-30T11:22:47;9.75;;;4.72;;
63087;SDS011;49173;43.164;27.786;2023-08-30T11:25:17;8.80;;;4.63;;
63087;SDS011;49173;43.164;27.786;2023-08-30T11:27:44;10.70;;;4.68;;
63087;SDS011;49173;43.164;27.786;2023-08-30T11:30:11;10.55;;;4.78;;
63087;SDS011;49173;43.164;27.786;2023-08-30T11:32:38;9.43;;;4.78;;
63087;SDS011;49173;43.164;27.786;2023-08-30T11:35:11;10.38;;;4.43;;
63087;SDS011;49173;43.164;27.786;2023-08-30T11:37:47;8.93;;;3.92;;
63087;SDS011;49173;43.164;27.786;2023-08-30T11:40:13;16.17;;;4.80;;
63087;SDS011;49173;43.164;27.786;2023-08-30T11:42:48;8.85;;;4.28;;
63087;SDS011;49173;43.164;27.786;2023-08-30T11:45:18;9.43;;;4.47;;
63087;SDS011;49173;43.164;27.786;2023-08-30T11:47:47;10.88;;;4.75;;
63087;SDS011;49173;43.164;27.786;2023-08-30T11:50:14;8.10;;;4.50;;
63087;SDS011;49173;43.164;27.786;2023-08-30T11:52:57;10.73;;;4.20;;
63087;SDS011;49173;43.164;27.786;2023-08-30T11:55:26;13.32;;;4.13;;
63087;SDS011;49173;43.164;27.786;2023-08-30T11:57:55;11.90;;;4.43;;
63087;SDS011;49173;43.164;27.786;2023-08-30T12:00:33;11.70;;;4.78;;
63087;SDS011;49173;43.164;27.786;2023-08-30T12:03:00;20.90;;;4.90;;
63087;SDS011;49173;43.164;27.786;2023-08-30T12:05:58;12.38;;;4.57;;
63087;SDS011;49173;43.164;27.786;2023-08-30T12:08:44;15.57;;;4.30;;
63087;SDS011;49173;43.164;27.786;2023-08-30T12:11:31;12.75;;;4.35;;
63087;SDS011;49173;43.164;27.786;2023-08-30T12:14:06;10.80;;;4.30;;
63087;SDS011;49173;43.164;27.786;2023-08-30T12:16:35;12.00;;;4.28;;
63087;SDS011;49173;43.164;27.786;2023-08-30T12:22:07;9.43;;;4.10;;
63087;SDS011;49173;43.164;27.786;2023-08-30T12:24:42;9.63;;;4.53;;
63087;SDS011;49173;43.164;27.786;2023-08-30T12:27:12;12.60;;;4.05;;
63087;SDS011;49173;43.164;27.786;2023-08-30T12:29:40;8.57;;;4.68;;
63087;SDS011;49173;43.164;27.786;2023-08-30T12:32:07;8.93;;;3.80;;
63087;SDS011;49173;43.164;27.786;2023-08-30T12:34:38;12.50;;;4.55;;
63087;SDS011;49173;43.164;27.786;2023-08-30T12:37:04;10.20;;;4.22;;
63087;SDS011;49173;43.164;27.786;2023-08-30T12:39:30;10.98;;;4.07;;
63087;SDS011;49173;43.164;27.786;2023-08-30T12:41:56;9.40;;;3.85;;
63087;SDS011;49173;43.164;27.786;2023-08-30T12:44:22;11.45;;;4.05;;
63087;SDS011;49173;43.164;27.786;2023-08-30T12:46:48;17.10;;;4.20;;
63087;SDS011;49173;43.164;27.786;2023-08-30T13:21:10;10.57;;;4.40;;
63087;SDS011;49173;43.164;27.786;2023-08-30T13:23:37;11.00;;;4.93;;
63087;SDS011;49173;43.164;27.786;2023-08-30T13:26:03;16.70;;;4.60;;
63087;SDS011;49173;43.164;27.786;2023-08-30T13:28:28;9.30;;;4.40;;
63087;SDS011;49173;43.164;27.786;2023-08-30T13:30:55;15.57;;;5.03;;
63087;SDS011;49173;43.164;27.786;2023-08-30T13:33:22;20.75;;;4.75;;
63087;SDS011;49173;43.164;27.786;2023-08-30T13:35:50;12.60;;;4.65;;
63087;SDS011;49173;43.164;27.786;2023-08-30T13:38:17;12.30;;;4.53;;
63087;SDS011;49173;43.164;27.786;2023-08-30T13:40:44;11.20;;;4.47;;
63087;SDS011;49173;43.164;27.786;2023-08-30T13:43:10;14.25;;;4.70;;
63087;SDS011;49173;43.164;27.786;2023-08-30T13:45:36;14.55;;;4.45;;
63087;SDS011;49173;43.164;27.786;2023-08-30T13:48:03;11.10;;;4.25;;
63087;SDS011;49173;43.164;27.786;2023-08-30T13:50:29;12.35;;;4.47;;
63087;SDS011;49173;43.164;27.786;2023-08-30T13:53:03;8.63;;;3.97;;
63087;SDS011;49173;43.164;27.786;2023-08-30T13:55:29;14.45;;;4.10;;
63087;SDS011;49173;43.164;27.786;2023-08-30T13:58:01;11.52;;;4.70;;
63087;SDS011;49173;43.164;27.786;2023-08-30T14:00:27;9.77;;;3.97;;
63087;SDS011;49173;43.164;27.786;2023-08-30T14:02:53;16.33;;;4.25;;
63087;SDS011;49173;43.164;27.786;2023-08-30T14:05:18;12.80;;;5.07;;
63087;SDS011;49173;43.164;27.786;2023-08-30T14:07:44;21.67;;;4.43;;
63087;SDS011;49173;43.164;27.786;2023-08-30T14:10:10;12.65;;;4.18;;
63087;SDS011;49173;43.164;27.786;2023-08-30T14:12:36;9.98;;;3.97;;
63087;SDS011;49173;43.164;27.786;2023-08-30T14:15:02;10.10;;;4.10;;
63087;SDS011;49173;43.164;27.786;2023-08-30T14:17:28;10.98;;;4.45;;
63087;SDS011;49173;43.164;27.786;2023-08-30T14:19:54;12.60;;;4.28;;
63087;SDS011;49173;43.164;27.786;2023-08-30T14:22:19;12.57;;;4.35;;
63087;SDS011;49173;43.164;27.786;2023-08-30T14:24:45;7.45;;;4.47;;
63087;SDS011;49173;43.164;27.786;2023-08-30T14:27:11;11.38;;;4.50;;
63087;SDS011;49173;43.164;27.786;2023-08-30T14:29:38;9.43;;;4.20;;
63087;SDS011;49173;43.164;27.786;2023-08-30T14:32:04;10.75;;;4.30;;
63087;SDS011;49173;43.164;27.786;2023-08-30T14:34:30;11.95;;;4.25;;
63087;SDS011;49173;43.164;27.786;2023-08-30T14:36:56;13.05;;;4.35;;
63087;SDS011;49173;43.164;27.786;2023-08-30T14:39:22;9.25;;;4.15;;
63087;SDS011;49173;43.164;27.786;2023-08-30T14:41:47;12.82;;;4.50;;
63087;SDS011;49173;43.164;27.786;2023-08-30T14:44:13;9.38;;;4.28;;
63087;SDS011;49173;43.164;27.786;2023-08-30T14:46:39;10.95;;;4.28;;
63087;SDS011;49173;43.164;27.786;2023-08-30T14:49:05;12.48;;;4.25;;
63087;SDS011;49173;43.164;27.786;2023-08-30T14:51:30;11.00;;;4.05;;
63087;SDS011;49173;43.164;27.786;2023-08-30T14:54:03;11.45;;;4.03;;
63087;SDS011;49173;43.164;27.786;2023-08-30T14:56:29;14.02;;;4.35;;
63087;SDS011;49173;43.164;27.786;2023-08-30T14:58:55;14.10;;;4.68;;
63087;SDS011;49173;43.164;27.786;2023-08-30T15:01:21;11.32;;;4.53;;
63087;SDS011;49173;43.164;27.786;2023-08-30T15:03:47;12.90;;;4.30;;
63087;SDS011;49173;43.164;27.786;2023-08-30T15:06:13;7.82;;;3.83;;
63087;SDS011;49173;43.164;27.786;2023-08-30T15:08:39;14.57;;;4.15;;
63087;SDS011;49173;43.164;27.786;2023-08-30T15:11:05;17.70;;;4.45;;
63087;SDS011;49173;43.164;27.786;2023-08-30T15:13:33;12.48;;;4.47;;
63087;SDS011;49173;43.164;27.786;2023-08-30T15:15:58;12.07;;;3.85;;
63087;SDS011;49173;43.164;27.786;2023-08-30T15:18:24;12.93;;;4.22;;